Time;durP1;ratioP1;P1;durP2;ratioP2;P2;SDS_P1;SDS_P2;PMS_P1;PMS_P2;Temp;Humidity;BMP_temperature;BMP_pressure;BME280_temperature;BME280_humidity;BME280_pressure;Samples;Min_cycle;Max_cycle;Signal;HPM_P1;HPM_P2
2024/01/07 00:01:45;;;;;;;120.50;37.67;;;3.10;99.90;;;;;;5008801;28;20034;-60
2024/01/07 00:04:10;;;;;;;118.68;38.22;;;3.10;99.90;;;;;;5005093;28;20148;-60
2024/01/07 00:06:36;;;;;;;126.82;39.03;;;3.10;99.90;;;;;;5002638;28;20105;-61
2024/01/07 00:09:01;;;;;;;130.07;38.95;;;3.10;99.90;;;;;;5008500;28;20104;-61
2024/01/07 00:11:27;;;;;;;121.88;35.95;;;3.10;99.90;;;;;;4991026;28;20034;-59
2024/01/07 00:13:52;;;;;;;116.28;37.17;;;3.10;99.90;;;;;;5005509;28;20053;-59
2024/01/07 00:16:18;;;;;;;117.32;36.50;;;3.10;99.90;;;;;;5010604;28;20029;-59
2024/01/07 00:18:44;;;;;;;110.60;36.15;;;3.10;99.90;;;;;;5009936;28;20032;-59
2024/01/07 00:21:09;;;;;;;111.50;37.95;;;3.10;99.90;;;;;;5009984;28;20040;-60
2024/01/07 00:23:35;;;;;;;114.50;34.97;;;3.10;99.90;;;;;;5008178;28;20082;-59
2024/01/07 00:26:03;;;;;;;107.25;35.38;;;3.10;99.90;;;;;;5012951;28;20084;-61
2024/01/07 00:28:28;;;;;;;107.90;36.25;;;3.10;99.90;;;;;;5010865;28;20631;-60
2024/01/07 00:30:54;;;;;;;110.97;35.20;;;3.10;99.90;;;;;;5007320;28;20041;-60
2024/01/07 00:33:19;;;;;;;108.38;34.58;;;3.10;99.90;;;;;;5009945;28;20030;-57
2024/01/07 00:35:45;;;;;;;117.05;36.08;;;3.10;99.90;;;;;;5010680;28;20122;-59
2024/01/07 00:38:10;;;;;;;108.70;33.83;;;3.10;99.90;;;;;;5004172;28;20030;-59
2024/01/07 00:40:36;;;;;;;108.32;34.13;;;3.10;99.90;;;;;;5006519;28;20026;-60
2024/01/07 00:43:02;;;;;;;103.68;33.88;;;3.10;99.90;;;;;;5008845;28;20036;-60
2024/01/07 00:45:27;;;;;;;96.95;33.28;;;3.20;99.90;;;;;;5008127;28;20066;-60
2024/01/07 00:47:54;;;;;;;97.72;31.73;;;3.20;99.90;;;;;;5009331;28;20021;-55
2024/01/07 00:50:20;;;;;;;89.50;31.52;;;3.20;99.90;;;;;;5001399;28;20053;-61
2024/01/07 00:52:46;;;;;;;91.20;30.55;;;3.20;99.90;;;;;;5002392;28;20477;-57
2024/01/07 00:55:11;;;;;;;91.13;29.10;;;3.10;99.90;;;;;;5005251;28;20018;-59
2024/01/07 00:57:37;;;;;;;104.15;31.40;;;3.20;99.90;;;;;;5005753;28;20029;-59
2024/01/07 01:00:06;;;;;;;84.43;30.05;;;3.20;99.90;;;;;;5004355;28;20041;-58
2024/01/07 01:02:32;;;;;;;85.53;28.67;;;3.20;99.90;;;;;;5006421;28;20069;-56
2024/01/07 01:04:58;;;;;;;71.43;26.45;;;3.20;99.90;;;;;;5012217;28;20431;-59
2024/01/07 01:07:23;;;;;;;85.60;26.95;;;3.20;99.90;;;;;;5011587;28;20022;-58
2024/01/07 01:09:49;;;;;;;73.13;26.55;;;3.20;99.90;;;;;;5004714;28;20427;-59
2024/01/07 01:12:14;;;;;;;72.93;25.38;;;3.20;99.90;;;;;;5010181;28;20487;-58
2024/01/07 01:14:41;;;;;;;79.22;26.08;;;3.30;99.90;;;;;;5010768;28;20026;-60
2024/01/07 01:17:06;;;;;;;77.40;25.55;;;3.30;99.90;;;;;;5006553;28;20057;-62
2024/01/07 01:19:32;;;;;;;72.93;27.20;;;3.30;99.90;;;;;;5012949;28;20084;-61
2024/01/07 01:21:57;;;;;;;72.10;26.42;;;3.30;99.90;;;;;;5005936;28;20587;-61
2024/01/07 01:24:23;;;;;;;74.57;26.45;;;3.30;99.90;;;;;;5004519;28;20026;-60
2024/01/07 01:26:48;;;;;;;70.15;27.20;;;3.30;99.90;;;;;;5004645;28;20030;-59
2024/01/07 01:29:14;;;;;;;67.72;26.10;;;3.30;99.90;;;;;;5004155;28;20056;-58
2024/01/07 01:31:39;;;;;;;66.72;24.52;;;3.30;99.90;;;;;;5002970;28;20254;-58
2024/01/07 01:34:05;;;;;;;62.20;23.00;;;3.30;99.90;;;;;;5005817;28;20030;-58
2024/01/07 01:36:33;;;;;;;63.92;23.92;;;3.30;99.90;;;;;;5003640;28;20030;-59
2024/01/07 01:38:59;;;;;;;61.97;21.55;;;3.30;99.90;;;;;;5006693;28;20098;-56
2024/01/07 01:41:24;;;;;;;64.47;22.65;;;3.30;99.90;;;;;;5005779;28;20108;-60
2024/01/07 01:43:50;;;;;;;54.53;20.00;;;3.30;99.90;;;;;;5005640;28;20048;-59
2024/01/07 01:46:15;;;;;;;55.55;21.55;;;3.30;99.90;;;;;;5004746;28;20041;-59
2024/01/07 01:48:42;;;;;;;53.95;20.13;;;3.30;99.90;;;;;;5011503;28;20072;-60
2024/01/07 01:51:08;;;;;;;60.45;20.98;;;3.30;99.90;;;;;;5011967;28;20041;-60
2024/01/07 01:53:34;;;;;;;49.88;20.08;;;3.30;99.90;;;;;;5010286;28;20488;-57
2024/01/07 01:56:04;;;;;;;50.97;19.25;;;3.30;99.90;;;;;;5013550;28;20069;-58
2024/01/07 01:58:30;;;;;;;46.95;18.48;;;3.30;99.90;;;;;;5006387;28;20579;-55
2024/01/07 02:00:56;;;;;;;47.67;18.33;;;3.30;99.90;;;;;;5007044;28;20022;-57
2024/01/07 02:03:21;;;;;;;53.75;18.15;;;3.30;99.90;;;;;;5012424;28;20046;-57
2024/01/07 02:05:49;;;;;;;42.50;16.00;;;3.30;99.90;;;;;;5013202;28;20136;-55
2024/01/07 02:08:15;;;;;;;41.60;16.98;;;3.30;99.90;;;;;;5012713;28;20033;-60
2024/01/07 02:10:40;;;;;;;41.17;16.13;;;3.30;99.90;;;;;;5009898;28;20489;-60
2024/01/07 02:13:06;;;;;;;45.00;16.15;;;3.30;99.90;;;;;;5012379;28;20034;-57
2024/01/07 02:15:31;;;;;;;36.75;15.35;;;3.40;99.90;;;;;;5006605;28;20073;-59
2024/01/07 02:17:57;;;;;;;38.42;16.45;;;3.40;99.90;;;;;;5009240;28;20069;-61
2024/01/07 02:20:23;;;;;;;35.78;15.63;;;3.40;99.90;;;;;;5011259;28;20049;-59
2024/01/07 02:22:49;;;;;;;39.92;15.75;;;3.40;99.90;;;;;;5009052;28;20168;-60
2024/01/07 02:25:14;;;;;;;35.47;15.77;;;3.40;99.90;;;;;;5007890;28;20130;-56
2024/01/07 02:27:40;;;;;;;38.28;16.45;;;3.40;99.90;;;;;;5008526;28;20518;-59
2024/01/07 02:30:06;;;;;;;34.08;14.50;;;3.40;99.90;;;;;;5010371;28;20773;-60
2024/01/07 02:32:34;;;;;;;36.25;14.70;;;3.40;99.90;;;;;;5009817;28;20412;-60
2024/01/07 02:35:00;;;;;;;38.83;15.73;;;3.40;99.90;;;;;;5008578;28;20073;-62
2024/01/07 02:37:25;;;;;;;33.80;15.07;;;3.40;99.90;;;;;;5012347;28;20516;-60
2024/01/07 02:39:51;;;;;;;32.95;14.18;;;3.40;99.90;;;;;;5009623;28;20025;-60
2024/01/07 02:42:16;;;;;;;33.10;14.88;;;3.40;99.90;;;;;;5009777;28;20404;-60
2024/01/07 02:44:42;;;;;;;33.58;14.70;;;3.40;99.90;;;;;;5004132;28;20041;-56
2024/01/07 02:47:07;;;;;;;37.45;15.02;;;3.40;99.90;;;;;;5009414;28;20033;-57
2024/01/07 02:49:33;;;;;;;34.83;15.98;;;3.40;99.90;;;;;;5010848;28;20032;-59
2024/01/07 02:51:58;;;;;;;37.95;16.23;;;3.40;99.90;;;;;;5008415;28;20040;-60
2024/01/07 02:54:24;;;;;;;34.15;15.18;;;3.40;99.90;;;;;;5009091;28;20033;-59
2024/01/07 02:56:49;;;;;;;39.55;16.90;;;3.40;99.90;;;;;;5009500;28;20026;-59
2024/01/07 02:59:15;;;;;;;37.20;16.30;;;3.40;99.90;;;;;;5008889;28;20504;-61
2024/01/07 03:01:42;;;;;;;32.90;15.43;;;3.40;99.90;;;;;;5009449;28;20092;-58
2024/01/07 03:04:09;;;;;;;37.10;15.73;;;3.40;99.90;;;;;;5010948;28;20026;-58
2024/01/07 03:06:35;;;;;;;38.58;16.50;;;3.40;99.90;;;;;;5010900;28;20515;-58
2024/01/07 03:09:01;;;;;;;33.72;14.68;;;3.40;99.90;;;;;;5007796;28;20334;-60
2024/01/07 03:11:26;;;;;;;35.13;14.82;;;3.30;99.90;;;;;;5002844;28;20543;-59
2024/01/07 03:13:52;;;;;;;39.25;15.93;;;3.30;99.90;;;;;;5008509;28;20032;-61
2024/01/07 03:16:25;;;;;;;37.95;16.55;;;3.30;99.90;;;;;;5006899;28;20439;-60
2024/01/07 03:18:50;;;;;;;43.58;17.70;;;3.30;99.90;;;;;;5010891;28;20030;-60
2024/01/07 03:21:17;;;;;;;37.53;16.88;;;3.30;99.90;;;;;;5009287;28;20026;-59
2024/01/07 03:23:43;;;;;;;35.85;16.38;;;3.30;99.90;;;;;;5007240;28;20480;-61
2024/01/07 03:26:08;;;;;;;36.78;16.48;;;3.30;99.90;;;;;;5008290;28;20116;-60
2024/01/07 03:28:34;;;;;;;45.63;19.15;;;3.30;99.90;;;;;;5008964;28;20022;-60
2024/01/07 03:31:05;;;;;;;41.95;17.98;;;3.20;99.90;;;;;;5007831;28;20033;-55
2024/01/07 03:33:30;;;;;;;43.25;17.67;;;3.20;99.90;;;;;;5011133;28;20022;-59
2024/01/07 03:35:56;;;;;;;43.28;17.83;;;3.20;99.90;;;;;;5006292;28;20094;-59
2024/01/07 03:38:21;;;;;;;39.67;17.65;;;3.30;99.90;;;;;;5005413;28;20033;-60
2024/01/07 03:40:47;;;;;;;36.60;16.95;;;3.30;99.90;;;;;;5005249;28;20050;-59
2024/01/07 03:43:12;;;;;;;39.00;17.33;;;3.30;99.90;;;;;;5009120;28;20117;-59
2024/01/07 03:45:38;;;;;;;38.47;17.13;;;3.30;99.90;;;;;;5005946;28;20388;-59
2024/01/07 03:48:04;;;;;;;37.55;16.67;;;3.30;99.90;;;;;;5010747;28;20044;-60
2024/01/07 03:50:29;;;;;;;35.85;16.38;;;3.30;99.90;;;;;;5009356;28;20042;-56
2024/01/07 03:52:55;;;;;;;40.42;17.98;;;3.30;99.90;;;;;;5004075;28;20105;-59
2024/01/07 03:55:20;;;;;;;42.08;17.90;;;3.30;99.90;;;;;;5008102;28;20514;-58
2024/01/07 03:57:46;;;;;;;40.58;17.95;;;3.30;99.90;;;;;;5007922;28;20030;-58
2024/01/07 04:00:12;;;;;;;47.88;19.42;;;3.40;99.90;;;;;;5005256;28;20054;-56
2024/01/07 04:02:37;;;;;;;45.65;18.65;;;3.40;99.90;;;;;;5004614;28;20033;-58
2024/01/07 04:05:04;;;;;;;49.90;20.45;;;3.40;99.90;;;;;;5008269;28;20025;-60
2024/01/07 04:07:30;;;;;;;58.20;21.23;;;3.40;99.90;;;;;;5005437;28;20072;-60
2024/01/07 04:09:55;;;;;;;56.35;22.58;;;3.30;99.90;;;;;;5009497;28;20058;-59
2024/01/07 04:12:21;;;;;;;59.45;22.58;;;3.30;99.90;;;;;;5004275;28;20084;-61
2024/01/07 04:14:46;;;;;;;58.78;23.15;;;3.30;99.90;;;;;;5010207;28;20027;-60
2024/01/07 04:17:12;;;;;;;56.42;22.60;;;3.20;99.90;;;;;;5006381;28;20030;-59
2024/01/07 04:19:38;;;;;;;57.08;23.00;;;3.30;99.90;;;;;;5009129;28;20444;-61
2024/01/07 04:22:04;;;;;;;63.90;24.65;;;3.30;99.90;;;;;;5006970;28;20033;-60
2024/01/07 04:24:29;;;;;;;57.83;24.20;;;3.30;99.90;;;;;;5006940;28;20052;-60
2024/01/07 04:26:55;;;;;;;61.08;23.05;;;3.30;99.90;;;;;;5006307;28;20042;-59
2024/01/07 04:29:20;;;;;;;63.80;25.15;;;3.40;99.90;;;;;;5010100;28;20076;-59
2024/01/07 04:31:46;;;;;;;65.00;25.35;;;3.40;99.90;;;;;;5005269;28;20022;-60
2024/01/07 04:34:11;;;;;;;59.95;23.17;;;3.40;99.90;;;;;;5009302;28;20489;-58
2024/01/07 04:36:37;;;;;;;61.00;23.50;;;3.30;99.90;;;;;;5005401;28;20018;-58
2024/01/07 04:39:02;;;;;;;65.05;24.20;;;3.30;99.90;;;;;;5007184;28;20546;-59
2024/01/07 04:41:28;;;;;;;55.17;22.40;;;3.40;99.90;;;;;;5003132;28;20496;-59
2024/01/07 04:43:53;;;;;;;52.30;23.75;;;3.30;99.90;;;;;;5007816;28;20119;-60
2024/01/07 04:46:19;;;;;;;56.35;24.15;;;3.30;99.90;;;;;;5007756;28;20053;-60
2024/01/07 04:48:44;;;;;;;57.35;23.90;;;3.30;99.90;;;;;;5008281;28;20377;-58
2024/01/07 04:51:10;;;;;;;57.92;24.45;;;3.20;99.90;;;;;;5006596;28;20029;-59
2024/01/07 04:53:36;;;;;;;58.83;23.00;;;3.20;99.90;;;;;;5007229;28;20034;-61
2024/01/07 04:56:02;;;;;;;52.83;22.85;;;3.20;99.90;;;;;;5006724;28;20029;-59
2024/01/07 04:58:28;;;;;;;62.83;24.25;;;3.30;99.90;;;;;;5008384;28;20034;-60
2024/01/07 05:00:53;;;;;;;64.47;26.00;;;3.30;99.90;;;;;;4990791;28;20025;-59
2024/01/07 05:03:19;;;;;;;59.08;22.17;;;3.20;99.90;;;;;;5009658;28;20104;-59
2024/01/07 05:05:44;;;;;;;58.92;21.98;;;3.20;99.90;;;;;;5006778;28;20031;-59
2024/01/07 05:08:10;;;;;;;52.30;21.65;;;3.20;99.90;;;;;;5008242;28;20030;-63
2024/01/07 05:10:35;;;;;;;54.33;21.73;;;3.10;99.90;;;;;;5006277;28;20116;-55
2024/01/07 05:13:04;;;;;;;45.00;20.13;;;3.10;99.90;;;;;;5010059;28;20052;-57
2024/01/07 05:15:31;;;;;;;49.55;19.92;;;3.10;99.90;;;;;;5006293;28;20076;-59
2024/01/07 05:17:56;;;;;;;55.70;22.05;;;3.10;99.90;;;;;;5008266;28;20428;-61
2024/01/07 05:20:22;;;;;;;55.90;20.17;;;3.10;99.90;;;;;;5005430;28;20114;-59
2024/01/07 05:22:47;;;;;;;54.03;21.20;;;3.10;99.90;;;;;;5003234;28;20034;-60
2024/01/07 05:25:13;;;;;;;46.30;20.55;;;3.10;99.90;;;;;;5002792;28;20034;-61
2024/01/07 05:27:38;;;;;;;50.20;20.95;;;3.10;99.90;;;;;;5002725;28;20668;-54
2024/01/07 05:30:04;;;;;;;51.53;20.80;;;3.10;99.90;;;;;;5007640;28;20091;-59
2024/01/07 05:32:30;;;;;;;46.58;20.02;;;3.10;99.90;;;;;;5003690;28;20033;-54
2024/01/07 05:34:55;;;;;;;47.22;20.17;;;3.10;99.90;;;;;;5005401;28;20026;-59
2024/01/07 05:37:21;;;;;;;53.60;22.15;;;3.10;99.90;;;;;;5004777;28;20030;-58
2024/01/07 05:39:47;;;;;;;56.30;24.10;;;3.00;99.90;;;;;;5010567;28;20029;-60
2024/01/07 05:42:12;;;;;;;47.20;20.58;;;3.00;99.90;;;;;;5002274;28;20034;-58
2024/01/07 05:44:38;;;;;;;56.63;22.88;;;3.10;99.90;;;;;;5006822;28;20037;-60
2024/01/07 05:47:04;;;;;;;51.45;21.10;;;3.00;99.90;;;;;;5008704;28;20025;-59
2024/01/07 05:49:29;;;;;;;49.95;22.85;;;3.10;99.90;;;;;;5005489;28;20443;-61
2024/01/07 05:51:55;;;;;;;51.83;22.88;;;3.00;99.90;;;;;;5004219;28;20030;-60
2024/01/07 05:54:20;;;;;;;49.58;21.35;;;3.00;99.90;;;;;;5007670;28;20080;-56
2024/01/07 05:56:46;;;;;;;53.65;23.58;;;3.00;99.90;;;;;;5006974;28;20061;-56
2024/01/07 05:59:12;;;;;;;45.10;21.05;;;3.00;99.90;;;;;;5008770;28;20037;-57
2024/01/07 06:01:38;;;;;;;47.42;21.92;;;3.00;99.90;;;;;;5006657;28;20492;-57
2024/01/07 06:04:03;;;;;;;48.00;22.00;;;3.00;99.90;;;;;;5004565;28;20041;-59
2024/01/07 06:06:29;;;;;;;48.78;20.45;;;3.00;99.90;;;;;;5007561;28;20032;-59
2024/01/07 06:08:54;;;;;;;44.70;19.98;;;3.00;99.90;;;;;;5009821;28;20068;-59
2024/01/07 06:11:20;;;;;;;47.63;21.23;;;3.10;99.90;;;;;;4991132;28;20408;-60
2024/01/07 06:13:46;;;;;;;47.67;21.00;;;3.10;99.90;;;;;;5007034;28;20029;-59
2024/01/07 06:16:11;;;;;;;51.20;21.20;;;3.00;99.90;;;;;;5009446;28;20026;-61
2024/01/07 06:18:37;;;;;;;49.28;20.90;;;3.00;99.90;;;;;;5004069;28;20026;-56
2024/01/07 06:21:03;;;;;;;47.45;21.98;;;3.00;99.90;;;;;;5007223;28;20077;-58
2024/01/07 06:23:28;;;;;;;50.90;21.20;;;3.00;99.90;;;;;;5003425;28;20221;-59
2024/01/07 06:25:54;;;;;;;53.95;21.70;;;3.00;99.90;;;;;;5003783;28;20041;-61
2024/01/07 06:28:20;;;;;;;61.25;24.38;;;3.10;99.90;;;;;;5001614;28;20326;-60
2024/01/07 06:30:45;;;;;;;52.20;23.48;;;3.10;99.90;;;;;;5005382;28;20018;-56
2024/01/07 06:33:12;;;;;;;55.30;23.30;;;3.00;99.90;;;;;;5000865;28;20077;-59
2024/01/07 06:35:38;;;;;;;51.75;23.55;;;3.00;99.90;;;;;;5004550;28;20041;-59
2024/01/07 06:38:04;;;;;;;53.03;22.95;;;3.00;99.90;;;;;;5007192;28;20026;-56
2024/01/07 06:40:29;;;;;;;50.38;22.77;;;3.00;99.90;;;;;;5004965;28;20049;-54
2024/01/07 06:42:56;;;;;;;56.30;22.95;;;3.00;99.90;;;;;;5005304;28;20049;-58
2024/01/07 06:45:21;;;;;;;54.03;22.65;;;3.00;99.90;;;;;;5006625;28;20049;-60
2024/01/07 06:47:47;;;;;;;49.53;20.52;;;3.00;99.90;;;;;;5005486;28;20497;-60
2024/01/07 06:50:13;;;;;;;47.50;21.70;;;3.00;99.90;;;;;;5008049;28;20038;-57
2024/01/07 06:52:38;;;;;;;45.95;21.05;;;2.90;99.90;;;;;;5006195;28;20169;-59
2024/01/07 06:55:04;;;;;;;45.38;20.15;;;2.90;99.90;;;;;;5004711;28;20564;-60
2024/01/07 06:57:30;;;;;;;41.75;20.35;;;2.90;99.90;;;;;;5009016;28;20026;-59
2024/01/07 06:59:55;;;;;;;47.30;20.52;;;2.90;99.90;;;;;;5005669;28;20573;-58
2024/01/07 07:02:21;;;;;;;44.83;20.40;;;2.90;99.90;;;;;;5005891;28;20053;-59
2024/01/07 07:04:47;;;;;;;43.17;19.88;;;2.90;99.90;;;;;;5005752;28;20052;-57
2024/01/07 07:07:13;;;;;;;49.13;20.25;;;2.90;99.90;;;;;;5006427;28;20032;-60
2024/01/07 07:09:38;;;;;;;50.15;21.27;;;2.90;99.90;;;;;;5005148;28;20038;-60
2024/01/07 07:12:05;;;;;;;49.78;20.75;;;2.90;99.90;;;;;;5007248;28;20030;-56
2024/01/07 07:14:31;;;;;;;49.03;22.05;;;2.90;99.90;;;;;;5003351;28;20014;-60
2024/01/07 07:16:58;;;;;;;49.17;21.90;;;2.90;99.90;;;;;;5004380;28;20029;-57
2024/01/07 07:19:23;;;;;;;50.92;21.70;;;2.90;99.90;;;;;;5007866;28;20022;-57
2024/01/07 07:21:49;;;;;;;47.67;21.13;;;3.00;99.90;;;;;;5008069;28;20443;-60
2024/01/07 07:24:14;;;;;;;44.58;19.40;;;2.90;99.90;;;;;;5006330;28;20026;-55
2024/01/07 07:26:40;;;;;;;46.05;19.83;;;2.90;99.90;;;;;;5006129;28;20038;-59
2024/01/07 07:29:09;;;;;;;44.60;19.98;;;2.90;99.90;;;;;;5005469;28;20026;-59
2024/01/07 07:31:35;;;;;;;43.92;17.75;;;2.90;99.90;;;;;;5007518;28;20033;-57
2024/01/07 07:34:00;;;;;;;36.88;17.65;;;2.90;99.90;;;;;;5010808;28;20026;-58
2024/01/07 07:36:26;;;;;;;38.72;17.60;;;2.80;99.90;;;;;;5009403;28;20079;-59
2024/01/07 07:38:51;;;;;;;37.70;17.70;;;2.90;99.90;;;;;;5010480;28;20026;-56
2024/01/07 07:41:17;;;;;;;40.10;18.70;;;2.80;99.90;;;;;;5011201;28;20034;-59
2024/01/07 07:43:42;;;;;;;39.65;17.10;;;2.90;99.90;;;;;;5010657;28;20034;-59
2024/01/07 07:46:08;;;;;;;31.58;15.43;;;2.90;99.90;;;;;;5009064;28;20041;-59
2024/01/07 07:48:33;;;;;;;37.08;17.42;;;2.90;99.90;;;;;;5010517;28;20030;-56
2024/01/07 07:50:59;;;;;;;35.38;18.02;;;2.90;99.90;;;;;;5009460;28;20484;-62
2024/01/07 07:53:24;;;;;;;30.50;15.77;;;2.90;99.90;;;;;;5012147;28;20088;-59
2024/01/07 07:55:50;;;;;;;34.85;17.38;;;3.00;99.90;;;;;;5011268;28;20065;-59
2024/01/07 07:58:16;;;;;;;36.20;16.35;;;3.00;99.90;;;;;;5010277;28;20157;-60
2024/01/07 08:00:41;;;;;;;36.25;16.80;;;2.90;99.90;;;;;;5010371;28;20471;-59
2024/01/07 08:03:07;;;;;;;38.10;17.30;;;2.90;99.90;;;;;;5010394;28;20034;-56
2024/01/07 08:05:32;;;;;;;38.80;17.40;;;2.90;99.90;;;;;;5012087;28;20051;-58
2024/01/07 08:07:58;;;;;;;33.63;16.95;;;3.00;99.90;;;;;;5010726;28;20028;-58
2024/01/07 08:10:23;;;;;;;39.83;18.20;;;3.00;99.90;;;;;;5009069;28;20051;-60
2024/01/07 08:12:49;;;;;;;33.45;17.02;;;3.00;99.90;;;;;;5011186;28;20031;-57
2024/01/07 08:15:15;;;;;;;34.65;17.23;;;3.00;99.90;;;;;;5013050;28;20037;-59
2024/01/07 08:17:40;;;;;;;35.25;17.63;;;3.00;99.90;;;;;;5014975;28;20404;-63
2024/01/07 08:20:06;;;;;;;36.17;17.45;;;3.00;99.90;;;;;;5015825;28;20038;-62
2024/01/07 08:22:32;;;;;;;34.53;17.38;;;3.00;99.90;;;;;;5009812;28;20072;-59
2024/01/07 08:24:58;;;;;;;35.22;16.38;;;3.00;99.90;;;;;;5008041;28;20504;-60
2024/01/07 08:27:23;;;;;;;33.55;16.77;;;3.00;99.90;;;;;;5007747;28;20057;-58
2024/01/07 08:29:49;;;;;;;34.15;16.63;;;3.00;99.90;;;;;;5004921;28;20033;-61
2024/01/07 08:32:14;;;;;;;37.58;18.58;;;3.00;99.90;;;;;;4989751;28;20034;-59
2024/01/07 08:34:40;;;;;;;45.63;17.50;;;3.00;99.90;;;;;;5010240;28;20496;-57
2024/01/07 08:37:06;;;;;;;33.70;16.17;;;2.90;99.90;;;;;;5001296;28;20018;-58
2024/01/07 08:39:32;;;;;;;36.67;17.08;;;2.90;99.90;;;;;;5006415;28;20029;-59
2024/01/07 08:41:57;;;;;;;37.72;17.20;;;3.00;99.90;;;;;;5002109;28;20043;-60
2024/01/07 08:44:23;;;;;;;36.95;16.63;;;3.00;99.90;;;;;;5009528;28;20484;-60
2024/01/07 08:46:48;;;;;;;36.13;16.90;;;3.00;99.90;;;;;;5001788;28;20042;-57
2024/01/07 08:49:14;;;;;;;35.78;17.00;;;3.00;99.90;;;;;;5004584;28;20029;-61
2024/01/07 08:51:39;;;;;;;37.55;17.50;;;3.00;99.90;;;;;;5008245;28;20528;-59
2024/01/07 08:54:05;;;;;;;34.25;17.17;;;3.00;99.90;;;;;;5002830;28;20105;-59
2024/01/07 08:56:30;;;;;;;42.05;18.02;;;3.00;99.90;;;;;;5001235;28;20041;-59
2024/01/07 08:58:56;;;;;;;35.45;18.30;;;3.00;99.90;;;;;;5001945;28;20041;-59
2024/01/07 09:01:21;;;;;;;39.97;16.77;;;2.90;99.90;;;;;;5005959;28;20022;-56
2024/01/07 09:03:47;;;;;;;36.75;16.73;;;2.90;99.90;;;;;;5003646;28;20496;-59
2024/01/07 09:06:13;;;;;;;38.22;17.65;;;2.90;99.90;;;;;;5006512;28;20037;-60
2024/01/07 09:08:38;;;;;;;39.95;19.15;;;2.90;99.90;;;;;;5005408;28;20034;-59
2024/01/07 09:11:06;;;;;;;44.70;21.35;;;2.90;99.90;;;;;;5000881;28;20105;-55
2024/01/07 09:13:32;;;;;;;40.88;18.98;;;2.90;99.90;;;;;;5005494;28;20034;-60
2024/01/07 09:15:57;;;;;;;36.92;17.95;;;2.80;99.90;;;;;;5006196;28;20034;-61
2024/01/07 09:18:23;;;;;;;41.65;19.20;;;2.80;99.90;;;;;;5000274;28;20400;-59
2024/01/07 09:20:48;;;;;;;38.47;17.17;;;2.90;99.90;;;;;;5006813;28;20365;-60
2024/01/07 09:23:15;;;;;;;40.10;19.30;;;2.90;99.90;;;;;;4997584;28;20035;-60
2024/01/07 09:25:41;;;;;;;37.60;19.00;;;2.90;99.90;;;;;;5005763;28;20045;-60
2024/01/07 09:28:07;;;;;;;35.80;17.83;;;2.90;99.90;;;;;;5008254;28;20157;-53
2024/01/07 09:30:32;;;;;;;41.08;18.25;;;2.90;99.90;;;;;;5006832;28;20088;-56
2024/01/07 09:32:58;;;;;;;37.45;17.02;;;2.80;99.90;;;;;;5003999;28;20030;-57
2024/01/07 09:35:23;;;;;;;39.90;17.98;;;2.90;99.90;;;;;;5007299;28;20468;-55
2024/01/07 09:37:49;;;;;;;40.10;19.50;;;2.90;99.90;;;;;;5000602;28;20419;-53
2024/01/07 09:40:21;;;;;;;38.30;17.90;;;2.90;99.90;;;;;;5008568;28;20053;-57
2024/01/07 09:42:46;;;;;;;39.50;18.33;;;2.90;99.90;;;;;;5008689;28;20502;-56
2024/01/07 09:45:13;;;;;;;38.53;17.27;;;2.90;99.90;;;;;;5002112;28;20061;-54
2024/01/07 09:47:40;;;;;;;38.85;17.58;;;2.90;99.90;;;;;;5005050;28;20034;-55
2024/01/07 09:50:06;;;;;;;31.77;15.15;;;2.90;99.90;;;;;;5007719;28;20108;-54
2024/01/07 09:52:33;;;;;;;31.38;14.82;;;2.90;99.90;;;;;;5008440;28;20022;-55
2024/01/07 09:55:03;;;;;;;35.95;15.68;;;2.80;99.90;;;;;;5007139;28;20389;-53
2024/01/07 09:57:29;;;;;;;32.30;15.15;;;2.80;99.90;;;;;;5008135;28;20022;-55
2024/01/07 09:59:55;;;;;;;36.78;15.27;;;2.80;99.90;;;;;;5006185;28;20435;-56
2024/01/07 10:02:22;;;;;;;29.42;14.00;;;2.80;99.90;;;;;;5003883;28;20061;-54
2024/01/07 10:04:49;;;;;;;26.25;13.55;;;2.80;99.90;;;;;;5002629;28;20034;-57
2024/01/07 10:07:15;;;;;;;19.75;11.00;;;2.90;99.90;;;;;;5002534;28;20058;-53
2024/01/07 10:09:42;;;;;;;22.08;12.30;;;2.90;99.90;;;;;;5009788;28;20038;-55
2024/01/07 10:12:08;;;;;;;24.33;12.20;;;2.90;99.90;;;;;;5006992;28;20054;-55
2024/01/07 10:14:33;;;;;;;22.30;11.73;;;2.90;99.90;;;;;;5011765;28;20377;-57
2024/01/07 10:16:59;;;;;;;19.85;11.48;;;2.90;99.90;;;;;;5009061;28;20034;-56
2024/01/07 10:19:25;;;;;;;21.02;11.57;;;2.90;99.90;;;;;;5012584;28;20532;-54
2024/01/07 10:22:04;;;;;;;20.50;11.05;;;2.90;99.90;;;;;;5010841;28;20365;-54
2024/01/07 10:24:38;;;;;;;22.25;11.13;;;2.90;99.90;;;;;;5006930;28;20044;-53
2024/01/07 10:27:05;;;;;;;23.10;11.50;;;2.90;99.90;;;;;;5011689;28;20480;-57
2024/01/07 10:29:30;;;;;;;20.85;11.38;;;3.00;99.90;;;;;;5007616;28;20065;-55
2024/01/07 10:31:57;;;;;;;17.98;9.27;;;3.00;99.90;;;;;;5006958;28;20455;-56
2024/01/07 10:34:24;;;;;;;20.33;10.70;;;3.00;99.90;;;;;;5005925;28;20030;-57
2024/01/07 10:36:52;;;;;;;28.70;12.35;;;3.00;99.90;;;;;;5008692;28;20022;-56
2024/01/07 10:39:19;;;;;;;20.85;12.02;;;3.00;99.90;;;;;;5002011;28;20334;-56
2024/01/07 10:41:46;;;;;;;23.02;11.57;;;3.00;99.90;;;;;;4992874;28;20057;-57
2024/01/07 10:44:11;;;;;;;19.80;11.10;;;2.90;99.90;;;;;;4999279;28;20061;-56
2024/01/07 10:46:37;;;;;;;24.42;12.73;;;2.80;99.90;;;;;;5009610;28;20061;-56
2024/01/07 10:49:21;;;;;;;21.83;11.70;;;2.90;99.90;;;;;;5008945;28;20030;-56
2024/01/07 10:52:03;;;;;;;19.73;10.02;;;2.90;99.90;;;;;;5009432;28;20392;-57
2024/01/07 10:54:29;;;;;;;22.95;12.20;;;2.80;99.90;;;;;;5006393;28;20037;-54
2024/01/07 10:56:59;;;;;;;21.42;11.82;;;2.80;99.90;;;;;;5006789;28;20026;-56
2024/01/07 10:59:26;;;;;;;22.77;12.45;;;2.80;99.90;;;;;;5006448;28;20057;-57
2024/01/07 11:01:52;;;;;;;27.77;12.70;;;2.80;99.90;;;;;;5005328;28;20156;-56
2024/01/07 11:04:26;;;;;;;29.90;12.95;;;2.70;99.90;;;;;;5007596;28;20061;-53
2024/01/07 11:07:17;;;;;;;31.87;13.30;;;2.80;99.90;;;;;;5007767;28;20090;-54
2024/01/07 11:09:47;;;;;;;28.38;13.85;;;2.80;99.90;;;;;;4999036;28;20527;-55
2024/01/07 11:12:13;;;;;;;32.28;13.88;;;2.80;99.90;;;;;;5006466;28;20057;-55
2024/01/07 11:14:52;;;;;;;28.95;14.65;;;2.80;99.90;;;;;;5007345;28;20034;-56
2024/01/07 11:17:37;;;;;;;31.75;14.75;;;2.80;99.90;;;;;;5005198;28;20488;-57
2024/01/07 11:20:12;;;;;;;36.90;16.13;;;2.70;99.90;;;;;;5005960;28;20033;-54
2024/01/07 11:22:38;;;;;;;36.03;16.92;;;2.70;99.90;;;;;;5010890;28;20025;-55
2024/01/07 11:25:31;;;;;;;30.38;15.13;;;2.70;99.90;;;;;;5004947;28;20034;-55
2024/01/07 11:27:58;;;;;;;35.63;15.82;;;2.80;99.90;;;;;;5011380;28;20037;-56
2024/01/07 11:30:23;;;;;;;31.05;15.25;;;2.80;99.90;;;;;;5005729;28;20112;-55
2024/01/07 11:32:59;;;;;;;33.92;16.38;;;2.80;99.90;;;;;;5006713;28;20161;-56
2024/01/07 11:35:53;;;;;;;32.55;15.15;;;2.70;99.90;;;;;;5011529;28;20037;-54
2024/01/07 11:38:19;;;;;;;32.90;15.23;;;2.70;99.90;;;;;;5000631;28;20144;-54
2024/01/07 11:40:46;;;;;;;30.73;14.25;;;2.70;99.90;;;;;;5007794;28;20551;-55
2024/01/07 11:43:12;;;;;;;30.23;14.85;;;2.70;99.90;;;;;;4990609;28;20027;-57
2024/01/07 11:45:38;;;;;;;33.28;15.00;;;2.70;99.90;;;;;;5004466;28;20026;-56
2024/01/07 11:48:05;;;;;;;33.13;16.38;;;2.80;99.90;;;;;;5004198;28;20034;-56
2024/01/07 11:50:31;;;;;;;31.98;15.75;;;2.70;99.90;;;;;;5006925;28;20033;-56
2024/01/07 11:52:56;;;;;;;32.65;15.40;;;2.70;99.90;;;;;;5002246;28;20030;-51
2024/01/07 11:55:23;;;;;;;39.05;16.58;;;2.70;99.90;;;;;;5009445;28;20105;-56
2024/01/07 11:57:48;;;;;;;34.65;16.55;;;2.70;99.90;;;;;;5008540;28;20069;-56
2024/01/07 12:00:14;;;;;;;31.88;16.50;;;2.60;99.90;;;;;;5002308;28;20026;-54
2024/01/07 12:02:40;;;;;;;36.08;16.20;;;2.60;99.90;;;;;;5005186;28;20523;-56
2024/01/07 12:05:06;;;;;;;33.53;16.17;;;2.50;99.90;;;;;;5003861;28;20115;-54
2024/01/07 12:07:32;;;;;;;35.38;15.98;;;2.50;99.90;;;;;;5007926;28;20192;-55
2024/01/07 12:09:58;;;;;;;29.80;16.10;;;2.50;99.90;;;;;;5004248;28;20033;-54
2024/01/07 12:12:24;;;;;;;34.15;15.60;;;2.50;99.90;;;;;;5007424;28;20392;-53
2024/01/07 12:14:50;;;;;;;30.23;15.10;;;2.50;99.90;;;;;;5002248;28;20046;-55
2024/01/07 12:17:18;;;;;;;35.17;16.27;;;2.50;99.90;;;;;;5008383;28;20068;-54
2024/01/07 12:19:44;;;;;;;29.02;15.02;;;2.60;99.90;;;;;;5008507;28;20029;-54
2024/01/07 12:22:09;;;;;;;34.58;16.15;;;2.60;99.90;;;;;;5004323;28;20026;-51
2024/01/07 12:24:35;;;;;;;28.05;14.43;;;2.50;99.90;;;;;;5005688;28;20017;-53
2024/01/07 12:27:05;;;;;;;27.77;13.57;;;2.60;99.90;;;;;;5000402;28;20025;-54
2024/01/07 12:29:30;;;;;;;30.77;14.60;;;2.60;99.90;;;;;;5003639;28;20036;-53
2024/01/07 12:31:56;;;;;;;27.38;14.77;;;2.60;99.90;;;;;;5001306;28;20049;-52